createdAt,value
2023-05-12T00:04:02.036Z,183.90
2023-05-12T00:08:06.785Z,182.15
2023-05-12T00:12:10.674Z,184.95
2023-05-12T00:16:15.593Z,184.13
2023-05-12T00:20:18.970Z,184.15
2023-05-12T00:24:23.560Z,185.10
2023-05-12T00:28:26.766Z,184.90
2023-05-12T00:32:29.936Z,185.00
2023-05-12T00:36:32.949Z,185.23
2023-05-12T00:40:37.389Z,184.30
2023-05-12T00:44:40.570Z,185.27
2023-05-12T00:48:43.720Z,186.48
2023-05-12T00:52:47.800Z,184.33
2023-05-12T00:56:52.837Z,185.00
2023-05-12T01:00:56.373Z,184.80
2023-05-12T01:04:59.563Z,184.70
2023-05-12T01:09:02.878Z,184.65
2023-05-12T01:13:07.219Z,185.93
2023-05-12T01:17:13.411Z,184.10
2023-05-12T01:21:17.294Z,184.10
2023-05-12T01:25:24.754Z,184.00
2023-05-12T01:29:30.097Z,185.35
2023-05-12T01:33:33.864Z,184.00
2023-05-12T01:37:36.930Z,181.45
2023-05-12T01:41:39.930Z,183.10
2023-05-12T01:45:44.259Z,183.23
2023-05-12T01:49:47.241Z,185.50
2023-05-12T01:53:50.233Z,182.80
2023-05-12T01:57:53.234Z,185.90
2023-05-12T02:06:00.495Z,184.55
2023-05-12T02:10:03.632Z,185.03
2023-05-12T02:14:06.706Z,182.70
2023-05-12T02:18:11.075Z,183.73
2023-05-12T02:22:14.083Z,183.20
2023-05-12T02:26:17.128Z,183.18
2023-05-12T02:30:20.282Z,183.87
2023-05-12T02:34:24.806Z,183.80
2023-05-12T02:42:35.459Z,183.60
2023-05-12T02:46:38.801Z,183.20
2023-05-12T02:50:43.266Z,183.70
2023-05-12T02:54:46.244Z,182.10
2023-05-12T02:58:49.237Z,183.13
2023-05-12T03:02:52.438Z,182.80
2023-05-12T03:06:57.857Z,182.40
2023-05-12T03:11:00.874Z,183.10
2023-05-12T03:15:04.936Z,182.65
2023-05-12T03:19:08.243Z,182.87
2023-05-12T03:23:12.646Z,183.00
2023-05-12T03:27:15.632Z,183.30
2023-05-12T03:31:18.646Z,179.80
2023-05-12T03:35:21.997Z,183.65
2023-05-12T03:39:26.557Z,182.48
2023-05-12T03:43:29.551Z,184.43
2023-05-12T03:47:32.588Z,183.25
2023-05-12T03:51:35.881Z,182.35
2023-05-12T03:55:40.288Z,184.40
2023-05-12T03:59:43.264Z,181.60
2023-05-12T04:03:48.803Z,181.63
2023-05-12T04:07:52.092Z,183.00
2023-05-12T04:11:56.424Z,180.97
2023-05-12T04:16:00.256Z,182.60
2023-05-12T04:20:04.300Z,182.70
2023-05-12T04:24:07.576Z,182.90
2023-05-12T04:28:12.360Z,181.95
2023-05-12T04:32:15.549Z,183.00
2023-05-12T04:36:18.687Z,183.70
2023-05-12T04:40:21.969Z,183.55
2023-05-12T04:44:26.497Z,182.30
2023-05-12T04:48:29.699Z,183.57
2023-05-12T04:52:34.153Z,183.43
2023-05-12T04:56:37.280Z,182.45
2023-05-12T05:00:41.762Z,183.05
2023-05-12T05:04:48.287Z,181.60
2023-05-12T05:08:51.784Z,182.98
2023-05-12T05:12:54.768Z,181.90
2023-05-12T05:16:59.964Z,182.15
2023-05-12T05:21:03.018Z,182.05
2023-05-12T05:25:07.245Z,182.30
2023-05-12T05:29:13.121Z,182.40
2023-05-12T05:33:17.467Z,181.55
2023-05-12T05:37:20.520Z,182.30
2023-05-12T05:41:23.750Z,180.80
2023-05-12T05:45:28.090Z,182.15
2023-05-12T05:49:32.541Z,182.53
2023-05-12T05:53:35.508Z,180.70
2023-05-12T05:57:38.546Z,180.90
2023-05-12T06:01:41.614Z,180.88
2023-05-12T06:05:46.145Z,180.80
2023-05-12T06:09:56.169Z,181.20
2023-05-12T06:13:59.116Z,183.07
2023-05-12T06:18:02.179Z,179.45
2023-05-12T06:22:06.803Z,180.87
2023-05-12T06:26:11.805Z,179.95
2023-05-12T06:30:16.394Z,183.25
2023-05-12T06:34:19.577Z,180.63
2023-05-12T06:38:23.890Z,183.20
2023-05-12T06:42:26.930Z,182.70
2023-05-12T06:46:30.982Z,182.40
2023-05-12T06:50:34.095Z,181.15
2023-05-12T06:54:38.469Z,182.40
2023-05-12T06:58:41.450Z,182.75
2023-05-12T07:02:44.504Z,181.90
2023-05-12T07:06:47.543Z,183.50
2023-05-12T07:10:52.128Z,183.10
2023-05-12T07:14:55.132Z,180.47
2023-05-12T07:18:58.348Z,183.57
2023-05-12T07:23:01.380Z,184.93
2023-05-12T07:27:06.223Z,183.55
2023-05-12T07:35:12.580Z,185.55
2023-05-12T07:39:19.351Z,184.17
2023-05-12T09:00:40.397Z,184.35
2023-05-12T09:04:45.311Z,187.10
2023-05-12T09:12:55.723Z,186.97
2023-05-12T09:17:05.005Z,187.30
2023-05-12T09:21:09.646Z,184.65
2023-05-12T09:25:19.925Z,188.30
2023-05-12T09:29:30.521Z,188.05
2023-05-12T09:33:36.159Z,189.23
2023-05-12T09:37:40.907Z,188.80
2023-05-12T09:41:44.462Z,190.03
2023-05-12T09:45:50.211Z,190.20
2023-05-12T09:49:55.155Z,190.20
2023-05-12T09:53:59.781Z,189.90
2023-05-12T09:58:06.454Z,192.07
2023-05-12T10:02:11.090Z,190.57
2023-05-12T10:06:16.837Z,190.35
2023-05-12T10:10:24.285Z,191.90
2023-05-12T10:18:32.511Z,189.82
2023-05-12T10:22:36.346Z,197.32
2023-05-12T10:26:42.892Z,194.15
2023-05-12T10:35:12.701Z,192.13
2023-05-12T10:39:18.472Z,191.40
2023-05-12T10:43:28.371Z,193.70
2023-05-12T10:48:28.416Z,192.05
2023-05-12T10:56:31.314Z,194.03
2023-05-12T11:00:46.684Z,196.05
2023-05-12T11:04:51.837Z,196.10
2023-05-12T11:08:57.077Z,196.35
2023-05-12T11:13:01.270Z,195.90
2023-05-12T11:17:06.246Z,194.87
2023-05-12T11:21:13.092Z,194.77
2023-05-12T11:25:16.785Z,195.90
2023-05-12T11:29:20.552Z,196.00
2023-05-12T11:33:25.232Z,196.20
2023-05-12T11:37:28.434Z,194.45
2023-05-12T11:41:31.507Z,196.40
2023-05-12T11:45:36.148Z,198.03
2023-05-12T11:49:49.073Z,196.83
2023-05-12T11:53:53.829Z,194.20
2023-05-12T11:57:58.818Z,194.90
2023-05-12T12:02:04.124Z,195.68
2023-05-12T12:06:10.893Z,196.90
2023-05-12T12:10:17.861Z,197.90
2023-05-12T12:14:20.863Z,197.37
2023-05-12T12:18:23.920Z,197.30
2023-05-12T12:22:34.523Z,196.55
2023-05-12T12:26:39.604Z,195.10
2023-05-12T12:30:42.721Z,193.80
2023-05-12T12:34:46.412Z,191.57
2023-05-12T12:38:50.736Z,185.35
2023-05-12T12:43:00.570Z,205.00
2023-05-12T12:47:04.387Z,204.25
2023-05-12T12:51:07.452Z,206.83
2023-05-12T12:55:11.911Z,205.07
2023-05-12T12:59:15.136Z,208.83
2023-05-12T13:03:20.186Z,210.55
2023-05-12T13:07:23.576Z,213.30
2023-05-12T13:11:28.238Z,212.85
2023-05-12T13:15:32.379Z,212.40
2023-05-12T13:19:37.798Z,212.40
2023-05-12T13:23:41.226Z,213.30
2023-05-12T13:27:45.686Z,214.45
2023-05-12T13:31:48.668Z,215.20
2023-05-12T13:35:51.681Z,214.00
2023-05-12T13:39:54.931Z,213.75
2023-05-12T13:43:59.452Z,215.45
2023-05-12T13:48:02.464Z,215.05
2023-05-12T13:52:06.050Z,212.45
2023-05-12T13:56:09.713Z,211.85
2023-05-12T14:00:17.283Z,210.20
2023-05-12T14:04:20.341Z,209.85
2023-05-12T14:08:23.346Z,206.35
2023-05-12T14:12:26.710Z,208.10
2023-05-12T14:16:31.381Z,206.90
2023-05-12T14:20:34.879Z,209.50
2023-05-12T14:24:37.878Z,197.83
2023-05-12T14:28:42.010Z,205.50
2023-05-12T14:32:46.451Z,201.55
2023-05-12T14:36:49.500Z,205.20
2023-05-12T14:40:52.505Z,205.30
2023-05-12T14:44:55.810Z,205.45
2023-05-12T14:49:00.255Z,203.90
2023-05-12T14:53:03.237Z,208.85
2023-05-12T14:57:06.277Z,209.30
2023-05-12T15:01:09.707Z,206.95
2023-05-12T15:05:14.518Z,206.88
2023-05-12T15:09:17.589Z,206.68
2023-05-12T15:13:22.585Z,206.53
2023-05-12T15:17:27.271Z,205.85
2023-05-12T15:21:34.829Z,205.35
2023-05-12T15:25:40.339Z,205.23
2023-05-12T15:29:43.381Z,209.40
2023-05-12T15:33:46.362Z,211.55
2023-05-12T15:37:50.732Z,209.43
2023-05-12T15:42:00.213Z,212.85
2023-05-12T15:46:04.642Z,210.20
2023-05-12T15:50:10.390Z,213.57
2023-05-12T15:54:14.987Z,212.10
2023-05-12T15:58:17.956Z,213.90
2023-05-12T16:02:21.980Z,211.00
2023-05-12T16:06:24.961Z,210.00
2023-05-12T16:10:29.301Z,215.00
2023-05-12T16:14:32.264Z,211.50
2023-05-12T16:18:35.371Z,209.40
2023-05-12T16:22:39.663Z,210.50
2023-05-12T16:26:44.146Z,211.90
2023-05-12T16:30:47.266Z,213.03
2023-05-12T16:34:50.529Z,212.90
2023-05-12T16:38:53.832Z,212.70
2023-05-12T16:42:58.417Z,213.77
2023-05-12T16:47:01.393Z,214.10
2023-05-12T16:51:06.792Z,213.10
2023-05-12T16:55:11.136Z,215.80
2023-05-12T16:59:15.754Z,214.50
2023-05-12T17:03:18.849Z,212.20
2023-05-12T17:07:21.865Z,214.07
2023-05-12T17:11:25.989Z,214.50
2023-05-12T17:15:30.458Z,215.10
2023-05-12T17:19:34.602Z,213.30
2023-05-12T17:23:37.737Z,212.70
2023-05-12T17:27:40.799Z,213.60
2023-05-12T17:31:45.222Z,214.00
2023-05-12T17:36:03.761Z,212.80
2023-05-12T17:40:17.132Z,213.13
2023-05-12T17:44:20.156Z,212.47
2023-05-12T17:48:26.378Z,211.33
2023-05-12T17:52:29.430Z,212.30
2023-05-12T17:56:32.443Z,206.65
2023-05-12T18:00:35.524Z,207.60
2023-05-12T18:04:40.023Z,207.05
2023-05-12T18:08:43.403Z,208.05
2023-05-12T18:12:47.285Z,208.00
2023-05-12T18:16:51.357Z,207.75
2023-05-12T18:20:56.095Z,209.07
2023-05-12T18:24:59.117Z,208.30
2023-05-12T18:29:02.151Z,207.75
2023-05-12T18:33:05.755Z,206.50
2023-05-12T18:37:15.327Z,205.10
2023-05-12T18:41:18.920Z,208.20
2023-05-12T18:45:22.868Z,206.00
2023-05-12T18:49:26.046Z,208.30
2023-05-12T18:53:30.398Z,211.15
2023-05-12T18:57:33.439Z,216.75
2023-05-12T19:01:36.719Z,200.18
2023-05-12T19:05:43.218Z,206.23
2023-05-12T19:09:47.849Z,204.75
2023-05-12T19:13:52.336Z,205.05
2023-05-12T19:17:55.395Z,203.55
2023-05-12T19:21:58.526Z,203.50
2023-05-12T19:26:02.864Z,201.87
2023-05-12T19:30:06.796Z,203.00
2023-05-12T19:34:10.108Z,203.40
2023-05-12T19:38:13.109Z,204.40
